Time;durP1;ratioP1;P1;durP2;ratioP2;P2;SDS_P1;SDS_P2;PMS_P1;PMS_P2;Temp;Humidity;BMP_temperature;BMP_pressure;BME280_temperature;BME280_humidity;BME280_pressure;Samples;Min_cycle;Max_cycle;Signal;HPM_P1;HPM_P2
2021/03/17 17:27:13;;;;;;;;;;;;;;;;;;;;;
2021/03/17 17:36:59;;;;;;;;;;;;;;;;;;;;;
2021/03/17 17:39:36;;;;;;;10.48;7.80;;;3.90;88.30;;;;;;4896438;29;20048;-94
2021/03/17 17:42:57;;;;;;;;;;;;;;;;;;;;;
2021/03/17 17:49:33;;;;;;;;;;;;;;;;;;;;;
2021/03/17 17:55:41;;;;;;;11.57;8.38;;;3.90;86.80;;;;;;4866025;29;20108;-92
2021/03/17 17:58:13;;;;;;;12.95;8.63;;;3.80;87.30;;;;;;4871049;29;20033;-94
2021/03/17 18:11:49;;;;;;;13.52;9.45;;;3.40;88.60;;;;;;5067107;23;20050;-96
2021/03/17 18:14:25;;;;;;;17.27;10.38;;;3.40;88.70;;;;;;4966549;28;20034;-94
2021/03/17 18:19:53;;;;;;;13.93;8.65;;;3.40;89.70;;;;;;5017653;23;20066;-95
2021/03/17 18:25:06;;;;;;;13.50;9.55;;;3.40;89.30;;;;;;5115912;23;20057;31
2021/03/17 18:27:42;;;;;;;18.05;10.60;;;3.40;88.70;;;;;;4937871;28;20046;-95
2021/03/17 18:30:24;;;;;;;;;;;;;;;;;;;;;
2021/03/17 18:32:51;;;;;;;13.27;10.40;;;3.30;89.60;;;;;;4970161;29;20066;-93
2021/03/17 18:44:47;;;;;;;15.52;10.68;;;3.30;89.60;;;;;;4867727;29;20052;-93
2021/03/17 18:47:15;;;;;;;14.98;10.05;;;3.30;90.00;;;;;;4948377;29;20058;-95
2021/03/17 18:49:43;;;;;;;19.50;12.00;;;3.30;89.60;;;;;;4959877;29;20027;-94
2021/03/17 18:52:09;;;;;;;19.50;11.65;;;3.30;89.70;;;;;;4942802;28;20039;-88
2021/03/17 18:54:34;;;;;;;14.82;11.43;;;3.30;89.40;;;;;;4950208;28;20046;-88
2021/03/17 18:57:05;;;;;;;14.45;9.60;;;3.20;89.60;;;;;;4934024;29;20032;-94
2021/03/17 18:59:33;;;;;;;14.00;9.88;;;3.20;89.60;;;;;;4929506;28;20027;-90
2021/03/17 19:01:59;;;;;;;18.02;10.98;;;3.20;90.00;;;;;;4931372;29;20043;-91
2021/03/17 19:04:26;;;;;;;16.55;9.80;;;3.20;89.60;;;;;;4947586;29;20111;-89
2021/03/17 19:06:52;;;;;;;15.95;10.85;;;3.30;90.10;;;;;;4927105;29;20123;-89
2021/03/17 19:09:18;;;;;;;14.60;9.20;;;3.30;90.00;;;;;;4927128;29;20086;-89
2021/03/17 19:11:44;;;;;;;17.35;10.10;;;3.20;90.00;;;;;;4945941;29;20497;-90
2021/03/17 19:14:10;;;;;;;15.30;10.35;;;3.30;90.10;;;;;;4933755;29;20027;-90
2021/03/17 19:16:36;;;;;;;16.15;11.20;;;3.30;90.30;;;;;;4938668;29;20459;-89
2021/03/17 19:19:02;;;;;;;12.75;9.32;;;3.30;90.30;;;;;;4933509;29;20023;-91
2021/03/17 19:21:28;;;;;;;16.08;9.15;;;3.30;90.40;;;;;;4933330;29;20035;-90
2021/03/17 19:23:54;;;;;;;12.18;9.65;;;3.40;90.20;;;;;;4920018;29;20122;-89
2021/03/17 19:26:20;;;;;;;16.98;10.77;;;3.40;90.10;;;;;;4919525;29;20032;-89
2021/03/17 19:28:46;;;;;;;15.23;10.43;;;3.30;90.00;;;;;;4921433;29;20052;-89
2021/03/17 19:31:18;;;;;;;14.82;10.35;;;3.30;90.30;;;;;;4921712;29;20036;-90
2021/03/17 19:33:44;;;;;;;16.08;10.15;;;3.40;90.10;;;;;;4921079;29;20027;-89
2021/03/17 19:36:12;;;;;;;11.85;8.70;;;3.30;89.80;;;;;;4921798;29;20039;-89
2021/03/17 19:38:39;;;;;;;16.23;9.80;;;3.30;89.60;;;;;;4921257;29;20529;-90
2021/03/17 19:41:05;;;;;;;15.32;10.40;;;3.20;89.40;;;;;;4928682;29;20051;-89
2021/03/17 19:43:33;;;;;;;11.88;8.93;;;3.20;89.70;;;;;;4937250;29;20024;-89
2021/03/17 19:46:00;;;;;;;14.80;11.13;;;3.20;89.90;;;;;;4935935;29;20032;-89
2021/03/17 19:48:26;;;;;;;15.77;12.25;;;3.10;89.80;;;;;;4952477;28;20500;-89
2021/03/17 19:50:53;;;;;;;14.52;9.73;;;3.10;90.20;;;;;;4937449;29;20072;-89
2021/03/17 19:53:19;;;;;;;17.38;11.95;;;3.10;90.40;;;;;;4937169;29;20036;-88
2021/03/17 19:55:45;;;;;;;15.10;10.63;;;3.00;90.30;;;;;;4936612;29;20431;-89
2021/03/17 19:58:11;;;;;;;13.55;10.25;;;3.00;90.30;;;;;;4952223;29;20542;-88
2021/03/17 20:00:41;;;;;;;13.27;9.55;;;3.00;90.40;;;;;;4935983;29;20064;-88
2021/03/17 20:03:07;;;;;;;16.13;9.55;;;2.90;90.20;;;;;;4935819;29;20149;-88
2021/03/17 20:05:35;;;;;;;14.23;10.20;;;2.90;90.20;;;;;;4936127;29;20514;-88
2021/03/17 20:08:01;;;;;;;14.13;10.13;;;2.90;90.30;;;;;;4951913;28;20039;-88
2021/03/17 20:10:28;;;;;;;11.90;9.38;;;2.90;90.60;;;;;;4936984;29;20047;-88
2021/03/17 20:12:54;;;;;;;12.30;9.52;;;3.00;90.70;;;;;;4935815;29;20046;-87
2021/03/17 20:15:20;;;;;;;13.50;9.63;;;3.00;90.30;;;;;;4935833;29;20466;-88
2021/03/17 20:17:46;;;;;;;14.40;9.40;;;2.90;90.20;;;;;;4935555;29;20032;-88
2021/03/17 20:20:18;;;;;;;17.80;10.27;;;2.90;90.10;;;;;;4936086;29;20127;-88
2021/03/17 20:22:45;;;;;;;12.50;9.80;;;2.90;90.30;;;;;;4936065;29;20031;-89
2021/03/17 20:25:15;;;;;;;13.55;9.68;;;2.90;90.20;;;;;;4935617;29;20510;-88
2021/03/17 20:27:43;;;;;;;11.52;9.13;;;2.80;90.20;;;;;;4936853;29;20028;-88
2021/03/17 20:30:11;;;;;;;12.60;8.85;;;2.80;90.30;;;;;;4935610;29;20522;-88
2021/03/17 20:32:38;;;;;;;13.77;10.27;;;2.80;90.40;;;;;;4935208;29;20411;-88
2021/03/17 20:35:05;;;;;;;15.65;10.18;;;2.70;90.40;;;;;;4935580;29;20546;-88
2021/03/17 20:37:30;;;;;;;12.30;9.65;;;2.70;90.40;;;;;;4935552;29;20063;-88
2021/03/17 20:39:56;;;;;;;13.32;11.13;;;2.70;90.40;;;;;;4935483;29;20087;-88
2021/03/17 20:42:25;;;;;;;11.85;9.25;;;2.70;90.40;;;;;;4919807;29;20031;-89
2021/03/17 20:44:52;;;;;;;11.98;8.40;;;2.60;90.50;;;;;;4919338;29;20027;-88
2021/03/17 20:47:19;;;;;;;12.30;10.07;;;2.50;90.60;;;;;;4919596;29;20028;-88
2021/03/17 20:49:46;;;;;;;13.48;9.40;;;2.50;90.60;;;;;;4919853;29;20032;-88
2021/03/17 20:52:12;;;;;;;12.35;9.93;;;2.50;90.60;;;;;;4919455;29;20127;-89
2021/03/17 20:54:38;;;;;;;13.10;11.10;;;2.50;90.60;;;;;;4919383;29;20028;-88
2021/03/17 20:57:04;;;;;;;16.10;12.00;;;2.50;90.80;;;;;;4919628;29;20028;-88
2021/03/17 20:59:30;;;;;;;15.98;12.43;;;2.40;91.10;;;;;;4923221;29;20038;-88
2021/03/17 21:01:56;;;;;;;15.75;11.85;;;2.40;90.90;;;;;;4923271;29;20059;-87
2021/03/17 21:04:21;;;;;;;15.63;11.05;;;2.40;90.80;;;;;;4923446;29;20028;-88
2021/03/17 21:06:48;;;;;;;16.85;11.70;;;2.40;90.80;;;;;;4923188;29;20034;-88
2021/03/17 21:09:14;;;;;;;18.08;12.55;;;2.40;90.90;;;;;;4923156;29;20028;-88
2021/03/17 21:11:40;;;;;;;14.07;11.18;;;2.40;91.00;;;;;;4922982;29;20430;-88
2021/03/17 21:14:05;;;;;;;17.83;11.60;;;2.40;90.90;;;;;;4940219;29;20481;-88
2021/03/17 21:16:31;;;;;;;12.85;10.25;;;2.40;90.90;;;;;;4923018;29;20114;-88
2021/03/17 21:18:57;;;;;;;18.52;13.35;;;2.40;90.70;;;;;;4923276;29;20024;-88
2021/03/17 21:21:23;;;;;;;14.95;11.63;;;2.40;91.00;;;;;;4940390;29;20479;-89
2021/03/17 21:23:49;;;;;;;18.05;13.05;;;2.40;90.90;;;;;;4922941;29;20039;-88
2021/03/17 21:26:14;;;;;;;14.10;10.85;;;2.40;91.00;;;;;;4922679;29;20027;-88
2021/03/17 21:28:40;;;;;;;20.02;12.43;;;2.40;90.90;;;;;;4939734;29;20383;-88
2021/03/17 21:31:06;;;;;;;18.13;14.00;;;2.40;90.90;;;;;;4939750;29;20030;-88
2021/03/17 21:33:32;;;;;;;17.60;12.80;;;2.40;91.20;;;;;;4922659;29;20398;-88
2021/03/17 21:35:58;;;;;;;20.02;14.45;;;2.40;91.20;;;;;;4922736;29;20051;-88
2021/03/17 21:38:24;;;;;;;19.60;12.40;;;2.30;91.00;;;;;;4922315;29;20107;-88
2021/03/17 21:40:53;;;;;;;19.88;14.32;;;2.40;91.00;;;;;;4928737;29;20058;-88
2021/03/17 21:43:19;;;;;;;17.77;14.55;;;2.30;91.40;;;;;;4953814;28;20036;-88
2021/03/17 21:45:46;;;;;;;17.15;12.95;;;2.30;91.30;;;;;;4938774;29;20070;-88
2021/03/17 21:48:18;;;;;;;19.70;14.13;;;2.30;91.20;;;;;;4954280;29;20055;-88
2021/03/17 21:50:51;;;;;;;21.90;15.32;;;2.30;91.30;;;;;;4938991;29;20051;-89
2021/03/17 21:53:17;;;;;;;22.88;13.93;;;2.20;91.40;;;;;;4938235;29;20031;-88
2021/03/17 21:55:47;;;;;;;21.45;14.02;;;2.30;91.40;;;;;;4938333;29;20059;-88
2021/03/17 21:58:14;;;;;;;20.63;14.18;;;2.30;91.80;;;;;;4938444;29;20035;-88
2021/03/17 22:00:41;;;;;;;23.08;15.15;;;2.30;91.60;;;;;;4938440;29;20494;-88
2021/03/17 22:03:07;;;;;;;20.73;13.65;;;2.30;91.40;;;;;;4938088;29;20024;-88
2021/03/17 22:05:33;;;;;;;29.33;15.73;;;2.30;91.40;;;;;;4939462;29;20031;-88
2021/03/17 22:07:59;;;;;;;26.35;15.18;;;2.30;91.40;;;;;;4939176;29;20023;-87
2021/03/17 22:10:25;;;;;;;19.67;14.88;;;2.30;91.40;;;;;;4937976;29;20032;-88
2021/03/17 22:12:51;;;;;;;22.58;15.15;;;2.30;91.50;;;;;;4937923;29;20380;-88
2021/03/17 22:15:17;;;;;;;20.25;14.48;;;2.40;91.50;;;;;;4939244;29;20034;-88
2021/03/17 22:17:43;;;;;;;24.27;16.05;;;2.30;91.60;;;;;;4939128;29;20027;-88
2021/03/17 22:20:22;;;;;;;21.88;13.43;;;2.30;91.60;;;;;;4938949;29;20028;-88
2021/03/17 22:22:49;;;;;;;24.25;16.25;;;2.30;91.50;;;;;;4937653;29;20032;-88
2021/03/17 22:25:15;;;;;;;21.42;13.88;;;2.30;91.50;;;;;;4937744;29;20062;-89
2021/03/17 22:27:42;;;;;;;18.10;12.73;;;2.30;91.50;;;;;;4937692;29;20032;-88
2021/03/17 22:30:10;;;;;;;24.17;16.67;;;2.30;91.50;;;;;;4937749;29;20054;-88
2021/03/17 22:32:37;;;;;;;23.00;16.30;;;2.30;91.80;;;;;;4938664;29;20584;-88
2021/03/17 22:35:05;;;;;;;22.52;13.57;;;2.20;91.50;;;;;;4937495;29;20028;-88
2021/03/17 22:37:31;;;;;;;22.83;15.02;;;2.20;91.30;;;;;;4937248;29;20030;-89
2021/03/17 22:39:57;;;;;;;18.92;13.70;;;2.20;91.30;;;;;;4953234;29;20052;-88
2021/03/17 22:42:23;;;;;;;21.88;15.35;;;2.30;91.50;;;;;;4938898;29;20035;-87
2021/03/17 22:44:49;;;;;;;25.15;15.43;;;2.20;91.50;;;;;;4921625;29;20082;-88
2021/03/17 22:47:16;;;;;;;22.77;14.48;;;2.20;91.50;;;;;;4921496;29;20506;-88
2021/03/17 22:49:44;;;;;;;20.48;14.50;;;2.20;91.60;;;;;;4938359;29;20034;-88
2021/03/17 22:52:10;;;;;;;21.38;13.38;;;2.20;91.50;;;;;;4938437;29;20040;-88
2021/03/17 22:54:35;;;;;;;18.73;13.60;;;2.20;91.40;;;;;;4921550;29;20023;-88
2021/03/17 22:57:01;;;;;;;24.77;15.50;;;2.20;91.40;;;;;;4938311;29;20031;-88
2021/03/17 22:59:27;;;;;;;25.95;15.43;;;2.20;91.70;;;;;;4921220;29;20059;-88
2021/03/17 23:01:53;;;;;;;18.70;13.63;;;2.10;91.70;;;;;;4921384;29;20122;-88
2021/03/17 23:04:18;;;;;;;22.80;14.68;;;2.20;91.50;;;;;;4920862;29;20070;-88
2021/03/17 23:06:44;;;;;;;21.63;15.63;;;2.20;91.80;;;;;;4921051;29;20069;-88
2021/03/17 23:09:16;;;;;;;24.50;15.68;;;2.20;91.80;;;;;;4938111;29;20028;-88
2021/03/17 23:11:44;;;;;;;25.80;15.20;;;2.20;91.60;;;;;;4921470;29;20036;-87
2021/03/17 23:14:13;;;;;;;30.48;15.85;;;2.20;91.50;;;;;;4921010;29;20035;-88
2021/03/17 23:16:39;;;;;;;25.15;15.57;;;2.20;91.70;;;;;;4921499;29;20126;-88
2021/03/17 23:19:15;;;;;;;24.48;15.90;;;2.20;91.50;;;;;;4920694;29;20448;-88
2021/03/17 23:21:42;;;;;;;25.00;15.35;;;2.20;91.90;;;;;;4920933;29;20035;-88
2021/03/17 23:24:10;;;;;;;25.02;17.33;;;2.20;91.70;;;;;;4920598;29;20060;-88
2021/03/17 23:26:47;;;;;;;25.00;15.07;;;2.10;91.80;;;;;;4920719;29;20032;-88
2021/03/17 23:29:21;;;;;;;22.75;14.82;;;2.10;92.10;;;;;;4920482;29;20106;-88
2021/03/17 23:31:47;;;;;;;26.90;14.65;;;2.10;91.90;;;;;;4920721;29;20051;-88
2021/03/17 23:34:16;;;;;;;27.85;15.13;;;2.10;92.00;;;;;;4920664;29;20516;-88
2021/03/17 23:36:43;;;;;;;24.30;15.52;;;2.10;91.90;;;;;;4920641;29;20035;-87
2021/03/17 23:39:29;;;;;;;25.63;17.00;;;2.20;91.80;;;;;;4920358;29;20069;-88
2021/03/17 23:41:56;;;;;;;22.35;14.32;;;2.20;91.80;;;;;;4935398;29;20059;-88
2021/03/17 23:44:22;;;;;;;24.30;16.35;;;2.20;92.10;;;;;;4936280;29;20040;-87
2021/03/17 23:46:48;;;;;;;30.30;17.42;;;2.20;91.80;;;;;;4937539;29;20075;-88
2021/03/17 23:49:14;;;;;;;24.25;15.10;;;2.20;92.00;;;;;;4937471;29;20063;-89
2021/03/17 23:51:40;;;;;;;20.08;14.98;;;2.20;92.00;;;;;;4936525;29;20485;-88
2021/03/17 23:54:10;;;;;;;22.20;15.63;;;2.20;91.90;;;;;;4952099;28;20031;-88
2021/03/17 23:56:37;;;;;;;27.02;17.73;;;2.20;92.00;;;;;;4935884;29;20028;-88
2021/03/17 23:59:03;;;;;;;28.15;17.38;;;2.20;91.90;;;;;;4936613;29;20027;-88
